• Join FlightAware (Why Join?)
  • Login
  • US Flag 
08:46PM EDT


 

Airport Tracker/Info


-or-


 

Live Flight TrackerFlight Track Log ✈ UAL5908 ✈ 20-Jun-2013 ✈ KDIK - KDEN

Flight Track Log - Related Links

Times and Time Zones

All times are in EDT time to prevent confusion due to time zone crossing. See the UAL5908 flight status page for this flight to view local times or setup timezone preferences in your user account.

Time Position Orientation Groundspeed Altitude Reporting Facility
EDT Latitude Longitude Course Direction KTS MPH feet Rate Location/Type
09:25AM 46.1902 -102.9843 182° South  Level Estimated
09:26AM 46.0974 -102.9186 154° Southeast  Level FlightAware Approximate
09:27AM 45.9964 -102.9502 180° South  Level Estimated
09:28AM 45.8990 -102.9004 160° South  Level FlightAware Approximate
09:29AM 45.7982 -102.9331 184° South  Level Estimated
09:30AM 45.6981 -102.8964 166° South  Level FlightAware Approximate
09:31AM 45.5975 -102.9302 184° South  Level Estimated
09:32AM 45.4968 -102.9638 180° South  Level Estimated
09:33AM 45.3962 -102.9973 185° South  Level Estimated
09:34AM 45.2952 -102.9662 168° South  Level FlightAware Approximate
09:35AM 45.1948 -103.0007 180° South  Level Estimated
09:36AM 45.0943 -103.0351 184° South  Level Estimated
09:37AM 44.9986 -102.9801 158° South  Level FlightAware Approximate
09:38AM 44.8984 -103.0161 182° South  Level Estimated
09:39AM 44.7965 -102.9921 171° South  Level FlightAware Approximate
09:40AM 44.6945 -102.9682 171° South  Level FlightAware Approximate
09:41AM 44.5948 -103.0063 186° South  Level Estimated
09:42AM 44.4950 -103.0442 183° South  Level Estimated
09:43AM 44.3919 -103.0355 177° South  Level FlightAware Approximate
09:44AM 44.2887 -103.0268 177° South  Level FlightAware Approximate
09:45AM 44.1856 -103.0182 177° South  Level FlightAware Approximate
09:46AM 44.0824 -103.0096 177° South  Level FlightAware Approximate
09:47AM 43.9835 -103.0514 191° South  Level Estimated
09:48AM 43.8806 -103.0639 185° South  Level FlightAware Approximate
09:48AM 46.6931 -102.7842 190° South 262 302 5,500  Level Minneapolis Center
09:49AM 43.7921 -103.0747 185° South  Level FlightAware Approximate
09:49AM 46.6025 -102.7931 184° South 271 312 8,300  Level Minneapolis Center
09:50AM 43.7036 -103.0854 185° South  Level FlightAware Approximate
09:50AM 46.5228 -102.8017 184° South 280 322 10,800  Level Minneapolis Center
09:51AM 43.6190 -103.1227 187° South  Level Estimated
09:51AM 46.4464 -102.8117 185° South 279 321 13,300  Level Minneapolis Center
09:52AM 43.5302 -103.1267 182° South  Level FlightAware Approximate
09:52AM 46.3656 -102.8161 182° South 284 327 13,800  Level Minneapolis Center
09:53AM 43.4457 -103.1645 190° South  Level Estimated
09:53AM 46.2719 -102.8231 183° South 323 372 15,100  Level Minneapolis Center
09:54AM 46.1767 -102.8322 184° South 338 389 16,600 1,320 Climbing Minneapolis Center
09:55AM 46.0794 -102.8400 183° South 346 398 17,900 1,380 Climbing Minneapolis Center
09:56AM 45.9594 -102.8519 184° South 357 411 19,500 1,440 Climbing Minneapolis Center
09:57AM 45.8569 -102.8597 183° South 365 420 20,900 1,380 Climbing Minneapolis Center
09:58AM 45.7556 -102.8697 184° South 367 422 22,400 1,560 Climbing Minneapolis Center
09:59AM 45.6558 -102.8783 183° South 362 417 24,100 1,680 Climbing Minneapolis Center
10:00AM 45.5486 -102.8861 183° South 353 406 25,900 1,560 Climbing Minneapolis Center
10:01AM 45.4542 -102.8939 183° South 345 397 27,400 1,320 Climbing Minneapolis Center
10:02AM 45.3586 -102.9025 184° South 344 396 28,700 1,200 Climbing Minneapolis Center
10:03AM 45.2625 -102.9103 183° South 345 397 29,900 1,200 Climbing Minneapolis Center
10:04AM 45.1672 -102.9186 184° South 345 397 31,300 1,320 Climbing Minneapolis Center
10:05AM 45.0722 -102.9253 183° South 344 396 32,700 1,500 Climbing Minneapolis Center
10:06AM 44.9617 -102.9347 183° South 336 387 34,400 1,080 Climbing Minneapolis Center
10:07AM 44.8706 -102.9417 183° South 330 380 35,000 240 Climbing Minneapolis Center
10:08AM 44.7753 -102.9558 186° South 339 390 35,000  Level Minneapolis Center
10:09AM 44.6722 -102.9739 187° South 363 418 35,000  Level Minneapolis Center
10:10AM 44.5642 -102.9886 186° South 382 440 35,000  Level Minneapolis Center
10:11AM 44.4519 -103.0067 187° South 398 458 35,000  Level Minneapolis Center
10:12AM 44.3414 -103.0219 186° South 401 461 35,000  Level Minneapolis Center
10:14AM 44.1869 -103.0450 186° South 401 461 35,000  Level Denver Center
10:15AM 44.0886 -103.0603 186° South 399 459 35,000  Level Denver Center
10:16AM 43.9656 -103.0792 186° South 399 459 35,000  Level Denver Center
10:17AM 43.8611 -103.0950 186° South 396 456 35,000  Level Denver Center
10:18AM 43.7356 -103.1114 185° South 401 461 35,000  Level Denver Center
10:19AM 43.6283 -103.1269 186° South 403 464 35,000  Level Denver Center
10:20AM 43.5039 -103.1447 186° South 403 464 35,000  Level Denver Center
10:21AM 43.3978 -103.1619 187° South 401 461 35,000  Level Denver Center
10:22AM 43.2911 -103.1769 186° South 401 461 35,000  Level Denver Center
10:23AM 43.1669 -103.1956 186° South 400 460 35,000  Level Denver Center
10:24AM 43.0608 -103.2097 186° South 398 458 35,000  Level Denver Center
10:25AM 42.9350 -103.2278 186° South 402 463 35,000  Level Denver Center
10:26AM 42.8292 -103.2425 186° South 398 458 35,000  Level Denver Center
10:27AM 42.7036 -103.2600 186° South 404 465 35,000  Level Denver Center
10:28AM 42.5975 -103.2756 186° South 401 461 35,000  Level Denver Center
10:29AM 42.4728 -103.2922 186° South 401 461 35,000  Level Denver Center
10:30AM 42.3675 -103.3128 188° South 400 460 35,000 -240 Level Denver Center
10:31AM 42.2425 -103.3250 184° South 401 461 34,600 -720 Descending Denver Center
10:32AM 42.1342 -103.3408 186° South 405 466 33,600 -1,020 Descending Denver Center
10:33AM 42.0256 -103.3564 186° South 408 470 32,600 -780 Descending Denver Center
10:34AM 41.8967 -103.3733 186° South 412 474 32,000 -300 Descending Denver Center
10:35AM 41.7856 -103.3889 186° South 414 476 32,000  Level Denver Center
10:36AM 41.6553 -103.4075 186° South 417 480 32,000  Level Denver Center
10:37AM 41.5439 -103.4228 186° South 419 482 32,000  Level Denver Center
10:38AM 41.4133 -103.4411 186° South 420 483 32,000  Level Denver Center
10:39AM 41.3000 -103.4589 187° South 424 488 32,000  Level Denver Center
10:41AM 41.1703 -103.4753 185° South 420 483 32,000  Level Denver Center
10:42AM 41.0586 -103.4908 186° South 421 484 32,000  Level Denver Center
10:43AM 40.9294 -103.5094 186° South 418 481 32,000 -900 Level Denver Center
10:44AM 40.8258 -103.5594 200° South 414 476 30,200 -2,100 Descending Denver Center
10:45AM 40.7369 -103.6356 213° Southwest 398 458 27,700 -2,700 Descending Denver Center
10:46AM 40.6414 -103.7286 216° Southwest 385 443 24,700 -2,640 Descending Denver Center
10:47AM 40.5617 -103.8067 217° Southwest 376 433 22,300 -2,400 Descending Denver Center
10:48AM 40.4739 -103.8903 216° Southwest 353 406 19,800 -2,040 Descending Denver Center
10:49AM 40.3997 -103.9661 218° Southwest 319 367 18,100 -1,740 Descending Denver Center
10:50AM 40.3561 -104.0583 238° Southwest 307 353 16,300 -1,740 Descending Denver Center
10:51AM 40.3550 -104.1814 269° West 314 361 14,600 -1,200 Descending Denver Center
10:52AM 40.3542 -104.2847 269° West 290 334 13,900 -720 Descending Denver Center
10:53AM 40.3303 -104.3747 251° West 260 299 13,100 -780 Descending Denver Center
10:54AM 40.2903 -104.4497 235° Southwest 251 289 12,300 -1,020 Descending Denver Center
10:55AM 40.2519 -104.5206 235° Southwest 243 280 11,100 -1,260 Descending Denver Center
10:56AM 40.1933 -104.5722 214° Southwest 244 281 9,800 -1,080 Descending Denver Center
10:57AM 40.1275 -104.6072 202° Southwest 254 292 8,900 -900 Descending Denver Center